Airport View

Enter AWOS ICAO identifier for current METAR.

ex. KFNL

KBDN 192335Z AUTO 34011KT 10SM CLR 21/02 A3014 RMK AO2

19 Oct 2020 23:42

Frequency: 134.425

Phone: 541-382-1477

Other Area AWOS: KRDM - KS21 - KS39 - KS33

TAF KBDN 191720Z 1918/2018 23005KT P6SM SCT150 FM192100 31010KT P6SM SCT150 FM200300 VRB04KT P6SM FEW200